sensor_id;sensor_type;location;lat;lon;timestamp;P1;durP1;ratioP1;P2;durP2;ratioP2
64915;SDS011;51427;-27.442;153.014;2023-02-23T00:01:55;6.45;;;2.13;;
64915;SDS011;51427;-27.442;153.014;2023-02-23T00:04:31;8.55;;;1.90;;
64915;SDS011;51427;-27.442;153.014;2023-02-23T00:06:59;8.43;;;1.83;;
64915;SDS011;51427;-27.442;153.014;2023-02-23T00:09:26;7.15;;;2.22;;
64915;SDS011;51427;-27.442;153.014;2023-02-23T00:12:00;5.97;;;2.40;;
64915;SDS011;51427;-27.442;153.014;2023-02-23T00:14:32;7.07;;;2.38;;
64915;SDS011;51427;-27.442;153.014;2023-02-23T00:17:02;11.45;;;2.22;;
64915;SDS011;51427;-27.442;153.014;2023-02-23T00:19:29;5.90;;;2.30;;
64915;SDS011;51427;-27.442;153.014;2023-02-23T00:21:58;11.75;;;2.35;;
64915;SDS011;51427;-27.442;153.014;2023-02-23T00:24:25;12.65;;;2.30;;
64915;SDS011;51427;-27.442;153.014;2023-02-23T00:26:54;8.63;;;2.28;;
64915;SDS011;51427;-27.442;153.014;2023-02-23T00:29:22;6.78;;;2.08;;
64915;SDS011;51427;-27.442;153.014;2023-02-23T00:31:50;7.72;;;2.35;;
64915;SDS011;51427;-27.442;153.014;2023-02-23T00:34:18;7.53;;;2.28;;
64915;SDS011;51427;-27.442;153.014;2023-02-23T00:36:48;8.55;;;1.90;;
64915;SDS011;51427;-27.442;153.014;2023-02-23T00:39:16;8.80;;;2.40;;
64915;SDS011;51427;-27.442;153.014;2023-02-23T00:41:47;6.90;;;2.20;;
64915;SDS011;51427;-27.442;153.014;2023-02-23T00:44:17;6.72;;;2.00;;
64915;SDS011;51427;-27.442;153.014;2023-02-23T00:46:46;5.60;;;1.88;;
64915;SDS011;51427;-27.442;153.014;2023-02-23T00:49:16;8.52;;;2.05;;
64915;SDS011;51427;-27.442;153.014;2023-02-23T00:51:44;6.25;;;2.40;;
64915;SDS011;51427;-27.442;153.014;2023-02-23T00:54:12;11.25;;;2.35;;
64915;SDS011;51427;-27.442;153.014;2023-02-23T00:56:40;7.03;;;2.65;;
64915;SDS011;51427;-27.442;153.014;2023-02-23T00:59:08;5.45;;;1.98;;
64915;SDS011;51427;-27.442;153.014;2023-02-23T01:01:37;4.50;;;2.00;;
64915;SDS011;51427;-27.442;153.014;2023-02-23T01:04:06;7.75;;;2.40;;
64915;SDS011;51427;-27.442;153.014;2023-02-23T01:06:34;8.52;;;2.13;;
64915;SDS011;51427;-27.442;153.014;2023-02-23T01:09:12;7.00;;;2.30;;
64915;SDS011;51427;-27.442;153.014;2023-02-23T01:11:53;9.45;;;2.40;;
64915;SDS011;51427;-27.442;153.014;2023-02-23T01:14:22;8.98;;;2.13;;
64915;SDS011;51427;-27.442;153.014;2023-02-23T01:16:49;7.10;;;2.08;;
64915;SDS011;51427;-27.442;153.014;2023-02-23T01:19:17;7.82;;;2.10;;
64915;SDS011;51427;-27.442;153.014;2023-02-23T01:21:44;8.25;;;1.92;;
64915;SDS011;51427;-27.442;153.014;2023-02-23T01:24:12;8.05;;;2.45;;
64915;SDS011;51427;-27.442;153.014;2023-02-23T01:26:40;6.28;;;1.67;;
64915;SDS011;51427;-27.442;153.014;2023-02-23T01:29:10;6.97;;;2.10;;
64915;SDS011;51427;-27.442;153.014;2023-02-23T01:31:43;5.30;;;2.28;;
64915;SDS011;51427;-27.442;153.014;2023-02-23T01:34:12;8.05;;;2.50;;
64915;SDS011;51427;-27.442;153.014;2023-02-23T01:36:41;15.35;;;2.88;;
64915;SDS011;51427;-27.442;153.014;2023-02-23T01:39:16;4.72;;;1.90;;
64915;SDS011;51427;-27.442;153.014;2023-02-23T01:41:45;6.53;;;2.47;;
64915;SDS011;51427;-27.442;153.014;2023-02-23T01:46:40;9.73;;;2.40;;
64915;SDS011;51427;-27.442;153.014;2023-02-23T01:49:11;8.85;;;1.92;;
64915;SDS011;51427;-27.442;153.014;2023-02-23T01:51:51;4.28;;;1.67;;
64915;SDS011;51427;-27.442;153.014;2023-02-23T01:54:25;6.57;;;1.83;;
64915;SDS011;51427;-27.442;153.014;2023-02-23T01:56:57;5.63;;;2.13;;
64915;SDS011;51427;-27.442;153.014;2023-02-23T01:59:28;6.93;;;1.80;;
64915;SDS011;51427;-27.442;153.014;2023-02-23T02:02:02;5.90;;;2.42;;
64915;SDS011;51427;-27.442;153.014;2023-02-23T02:04:30;4.15;;;1.98;;
64915;SDS011;51427;-27.442;153.014;2023-02-23T02:07:28;5.60;;;1.80;;
64915;SDS011;51427;-27.442;153.014;2023-02-23T02:09:57;7.75;;;1.75;;
64915;SDS011;51427;-27.442;153.014;2023-02-23T02:12:37;8.98;;;2.13;;
64915;SDS011;51427;-27.442;153.014;2023-02-23T02:15:09;7.63;;;1.92;;
64915;SDS011;51427;-27.442;153.014;2023-02-23T02:46:00;6.03;;;1.80;;
64915;SDS011;51427;-27.442;153.014;2023-02-23T02:51:39;4.80;;;1.17;;
64915;SDS011;51427;-27.442;153.014;2023-02-23T02:54:29;7.07;;;1.75;;
64915;SDS011;51427;-27.442;153.014;2023-02-23T02:57:01;5.00;;;1.60;;
64915;SDS011;51427;-27.442;153.014;2023-02-23T02:59:29;4.90;;;1.33;;
64915;SDS011;51427;-27.442;153.014;2023-02-23T03:02:16;5.10;;;1.27;;
64915;SDS011;51427;-27.442;153.014;2023-02-23T03:05:46;4.13;;;1.55;;
64915;SDS011;51427;-27.442;153.014;2023-02-23T03:11:34;3.17;;;1.08;;
64915;SDS011;51427;-27.442;153.014;2023-02-23T03:17:32;4.63;;;1.33;;
64915;SDS011;51427;-27.442;153.014;2023-02-23T03:20:27;3.00;;;1.30;;
64915;SDS011;51427;-27.442;153.014;2023-02-23T03:23:39;5.43;;;1.55;;
64915;SDS011;51427;-27.442;153.014;2023-02-23T03:29:22;4.50;;;1.17;;
64915;SDS011;51427;-27.442;153.014;2023-02-23T03:32:10;5.32;;;1.42;;
64915;SDS011;51427;-27.442;153.014;2023-02-23T03:36:02;5.13;;;1.60;;
64915;SDS011;51427;-27.442;153.014;2023-02-23T03:38:34;5.25;;;1.40;;
64915;SDS011;51427;-27.442;153.014;2023-02-23T03:41:39;2.78;;;0.90;;
64915;SDS011;51427;-27.442;153.014;2023-02-23T03:44:32;4.63;;;1.38;;
64915;SDS011;51427;-27.442;153.014;2023-02-23T03:47:21;2.95;;;1.20;;
64915;SDS011;51427;-27.442;153.014;2023-02-23T03:50:10;3.15;;;1.20;;
64915;SDS011;51427;-27.442;153.014;2023-02-23T03:53:01;8.95;;;1.63;;
64915;SDS011;51427;-27.442;153.014;2023-02-23T03:55:50;4.97;;;1.10;;
64915;SDS011;51427;-27.442;153.014;2023-02-23T03:58:39;5.07;;;1.27;;
64915;SDS011;51427;-27.442;153.014;2023-02-23T04:01:31;6.53;;;1.27;;
64915;SDS011;51427;-27.442;153.014;2023-02-23T04:04:17;8.55;;;1.33;;
64915;SDS011;51427;-27.442;153.014;2023-02-23T04:07:05;1.25;;;1.02;;
64915;SDS011;51427;-27.442;153.014;2023-02-23T04:09:52;3.55;;;1.17;;
64915;SDS011;51427;-27.442;153.014;2023-02-23T04:12:39;4.47;;;1.17;;
64915;SDS011;51427;-27.442;153.014;2023-02-23T04:15:59;3.22;;;1.00;;
64915;SDS011;51427;-27.442;153.014;2023-02-23T04:18:35;7.22;;;1.45;;
64915;SDS011;51427;-27.442;153.014;2023-02-23T04:21:04;5.40;;;1.30;;
64915;SDS011;51427;-27.442;153.014;2023-02-23T04:23:32;2.00;;;1.20;;
64915;SDS011;51427;-27.442;153.014;2023-02-23T04:26:00;2.97;;;1.00;;
64915;SDS011;51427;-27.442;153.014;2023-02-23T04:28:27;5.13;;;1.15;;
64915;SDS011;51427;-27.442;153.014;2023-02-23T04:30:54;3.67;;;1.20;;
64915;SDS011;51427;-27.442;153.014;2023-02-23T04:33:22;3.05;;;1.15;;
64915;SDS011;51427;-27.442;153.014;2023-02-23T04:35:52;7.63;;;1.60;;
64915;SDS011;51427;-27.442;153.014;2023-02-23T04:38:20;8.80;;;1.30;;
64915;SDS011;51427;-27.442;153.014;2023-02-23T04:40:48;1.98;;;1.02;;
64915;SDS011;51427;-27.442;153.014;2023-02-23T04:43:16;1.77;;;0.73;;
64915;SDS011;51427;-27.442;153.014;2023-02-23T04:45:43;3.70;;;0.95;;
64915;SDS011;51427;-27.442;153.014;2023-02-23T04:48:10;3.50;;;1.00;;
64915;SDS011;51427;-27.442;153.014;2023-02-23T04:50:37;2.28;;;1.10;;
64915;SDS011;51427;-27.442;153.014;2023-02-23T04:53:05;5.60;;;0.88;;
64915;SDS011;51427;-27.442;153.014;2023-02-23T04:55:32;3.88;;;0.63;;
64915;SDS011;51427;-27.442;153.014;2023-02-23T04:58:00;3.05;;;0.93;;
64915;SDS011;51427;-27.442;153.014;2023-02-23T05:00:28;2.65;;;0.93;;
64915;SDS011;51427;-27.442;153.014;2023-02-23T05:02:56;5.93;;;1.35;;
64915;SDS011;51427;-27.442;153.014;2023-02-23T05:05:24;3.95;;;0.98;;
64915;SDS011;51427;-27.442;153.014;2023-02-23T05:07:51;3.72;;;0.90;;
64915;SDS011;51427;-27.442;153.014;2023-02-23T05:10:19;5.10;;;1.50;;
64915;SDS011;51427;-27.442;153.014;2023-02-23T05:12:47;3.78;;;1.38;;
64915;SDS011;51427;-27.442;153.014;2023-02-23T05:15:14;3.67;;;1.10;;
64915;SDS011;51427;-27.442;153.014;2023-02-23T05:17:42;4.18;;;1.30;;
64915;SDS011;51427;-27.442;153.014;2023-02-23T05:20:09;4.72;;;1.10;;
64915;SDS011;51427;-27.442;153.014;2023-02-23T05:22:38;3.53;;;0.80;;
64915;SDS011;51427;-27.442;153.014;2023-02-23T05:25:06;5.53;;;1.17;;
64915;SDS011;51427;-27.442;153.014;2023-02-23T05:27:34;3.25;;;1.00;;
64915;SDS011;51427;-27.442;153.014;2023-02-23T05:30:02;4.63;;;1.15;;
64915;SDS011;51427;-27.442;153.014;2023-02-23T05:32:32;2.38;;;1.20;;
64915;SDS011;51427;-27.442;153.014;2023-02-23T05:35:00;4.95;;;1.10;;
64915;SDS011;51427;-27.442;153.014;2023-02-23T05:37:28;5.05;;;1.00;;
64915;SDS011;51427;-27.442;153.014;2023-02-23T05:39:55;5.00;;;1.30;;
64915;SDS011;51427;-27.442;153.014;2023-02-23T05:42:22;4.38;;;1.05;;
64915;SDS011;51427;-27.442;153.014;2023-02-23T05:44:50;7.40;;;1.38;;
64915;SDS011;51427;-27.442;153.014;2023-02-23T05:47:17;4.47;;;1.33;;
64915;SDS011;51427;-27.442;153.014;2023-02-23T05:49:44;3.60;;;1.05;;
64915;SDS011;51427;-27.442;153.014;2023-02-23T05:52:11;4.40;;;1.23;;
64915;SDS011;51427;-27.442;153.014;2023-02-23T05:54:39;5.78;;;1.50;;
64915;SDS011;51427;-27.442;153.014;2023-02-23T05:57:06;3.20;;;1.10;;
64915;SDS011;51427;-27.442;153.014;2023-02-23T05:59:33;6.60;;;1.10;;
64915;SDS011;51427;-27.442;153.014;2023-02-23T06:02:00;5.05;;;0.88;;
64915;SDS011;51427;-27.442;153.014;2023-02-23T06:04:29;5.25;;;1.15;;
64915;SDS011;51427;-27.442;153.014;2023-02-23T06:06:57;2.58;;;1.05;;
64915;SDS011;51427;-27.442;153.014;2023-02-23T06:09:24;2.83;;;0.90;;
64915;SDS011;51427;-27.442;153.014;2023-02-23T06:11:51;3.97;;;1.15;;
64915;SDS011;51427;-27.442;153.014;2023-02-23T06:14:19;4.20;;;1.05;;
64915;SDS011;51427;-27.442;153.014;2023-02-23T06:16:46;2.42;;;0.88;;
64915;SDS011;51427;-27.442;153.014;2023-02-23T06:19:14;3.60;;;1.10;;
64915;SDS011;51427;-27.442;153.014;2023-02-23T06:21:41;3.25;;;1.05;;
64915;SDS011;51427;-27.442;153.014;2023-02-23T06:24:09;4.38;;;1.17;;
64915;SDS011;51427;-27.442;153.014;2023-02-23T06:26:36;4.63;;;0.88;;
64915;SDS011;51427;-27.442;153.014;2023-02-23T06:29:04;5.45;;;1.10;;
64915;SDS011;51427;-27.442;153.014;2023-02-23T06:31:31;6.22;;;1.52;;
64915;SDS011;51427;-27.442;153.014;2023-02-23T06:33:58;6.60;;;1.58;;
64915;SDS011;51427;-27.442;153.014;2023-02-23T06:36:25;5.47;;;1.27;;
64915;SDS011;51427;-27.442;153.014;2023-02-23T06:38:56;2.83;;;0.82;;
64915;SDS011;51427;-27.442;153.014;2023-02-23T06:41:23;3.28;;;1.10;;
64915;SDS011;51427;-27.442;153.014;2023-02-23T06:43:49;5.10;;;1.60;;
64915;SDS011;51427;-27.442;153.014;2023-02-23T06:46:17;2.88;;;0.88;;
64915;SDS011;51427;-27.442;153.014;2023-02-23T06:48:45;2.65;;;1.00;;
64915;SDS011;51427;-27.442;153.014;2023-02-23T06:51:12;4.95;;;1.02;;
64915;SDS011;51427;-27.442;153.014;2023-02-23T06:53:39;4.07;;;0.80;;
64915;SDS011;51427;-27.442;153.014;2023-02-23T06:56:06;5.00;;;1.20;;
64915;SDS011;51427;-27.442;153.014;2023-02-23T06:58:34;5.88;;;1.02;;
64915;SDS011;51427;-27.442;153.014;2023-02-23T07:01:02;1.17;;;0.70;;
64915;SDS011;51427;-27.442;153.014;2023-02-23T07:03:30;3.33;;;1.05;;
64915;SDS011;51427;-27.442;153.014;2023-02-23T07:05:57;3.65;;;0.90;;
64915;SDS011;51427;-27.442;153.014;2023-02-23T07:08:25;2.72;;;0.93;;
64915;SDS011;51427;-27.442;153.014;2023-02-23T07:10:52;2.13;;;1.00;;
64915;SDS011;51427;-27.442;153.014;2023-02-23T07:13:19;3.33;;;1.10;;
64915;SDS011;51427;-27.442;153.014;2023-02-23T07:15:47;3.47;;;1.00;;
64915;SDS011;51427;-27.442;153.014;2023-02-23T07:18:15;2.33;;;0.82;;
64915;SDS011;51427;-27.442;153.014;2023-02-23T07:20:43;3.55;;;0.90;;
64915;SDS011;51427;-27.442;153.014;2023-02-23T07:23:11;2.50;;;1.02;;
64915;SDS011;51427;-27.442;153.014;2023-02-23T07:25:41;5.25;;;0.70;;
64915;SDS011;51427;-27.442;153.014;2023-02-23T07:28:09;3.88;;;1.20;;
64915;SDS011;51427;-27.442;153.014;2023-02-23T07:30:40;3.20;;;0.80;;
64915;SDS011;51427;-27.442;153.014;2023-02-23T07:33:07;1.23;;;0.70;;
64915;SDS011;51427;-27.442;153.014;2023-02-23T07:35:35;2.15;;;0.82;;
64915;SDS011;51427;-27.442;153.014;2023-02-23T07:38:02;3.00;;;1.05;;
64915;SDS011;51427;-27.442;153.014;2023-02-23T07:40:32;2.85;;;0.90;;
64915;SDS011;51427;-27.442;153.014;2023-02-23T07:43:00;3.55;;;0.90;;
64915;SDS011;51427;-27.442;153.014;2023-02-23T07:45:27;3.28;;;1.10;;
64915;SDS011;51427;-27.442;153.014;2023-02-23T07:47:55;3.35;;;0.90;;
64915;SDS011;51427;-27.442;153.014;2023-02-23T07:50:23;3.10;;;0.88;;
64915;SDS011;51427;-27.442;153.014;2023-02-23T07:52:51;2.97;;;0.98;;
64915;SDS011;51427;-27.442;153.014;2023-02-23T07:55:18;5.78;;;1.05;;
64915;SDS011;51427;-27.442;153.014;2023-02-23T07:57:47;2.65;;;0.93;;
64915;SDS011;51427;-27.442;153.014;2023-02-23T08:00:14;3.28;;;0.93;;
64915;SDS011;51427;-27.442;153.014;2023-02-23T08:02:42;2.40;;;0.95;;
64915;SDS011;51427;-27.442;153.014;2023-02-23T08:05:10;3.42;;;0.80;;
64915;SDS011;51427;-27.442;153.014;2023-02-23T08:07:38;1.15;;;0.63;;
64915;SDS011;51427;-27.442;153.014;2023-02-23T08:10:05;2.20;;;1.10;;
64915;SDS011;51427;-27.442;153.014;2023-02-23T08:12:33;2.72;;;0.75;;
64915;SDS011;51427;-27.442;153.014;2023-02-23T08:15:02;3.25;;;0.90;;
64915;SDS011;51427;-27.442;153.014;2023-02-23T08:17:34;1.27;;;0.47;;
64915;SDS011;51427;-27.442;153.014;2023-02-23T08:20:03;4.95;;;0.70;;
64915;SDS011;51427;-27.442;153.014;2023-02-23T08:22:31;2.63;;;0.68;;
64915;SDS011;51427;-27.442;153.014;2023-02-23T08:24:59;3.85;;;0.93;;
64915;SDS011;51427;-27.442;153.014;2023-02-23T08:27:33;2.50;;;0.70;;
64915;SDS011;51427;-27.442;153.014;2023-02-23T08:30:02;2.08;;;1.10;;
64915;SDS011;51427;-27.442;153.014;2023-02-23T08:32:34;4.07;;;1.10;;
64915;SDS011;51427;-27.442;153.014;2023-02-23T08:35:02;4.65;;;1.20;;
64915;SDS011;51427;-27.442;153.014;2023-02-23T08:37:30;4.32;;;1.10;;
64915;SDS011;51427;-27.442;153.014;2023-02-23T08:39:58;1.48;;;0.77;;
64915;SDS011;51427;-27.442;153.014;2023-02-23T08:42:28;2.25;;;1.02;;
64915;SDS011;51427;-27.442;153.014;2023-02-23T08:44:56;2.05;;;0.77;;
64915;SDS011;51427;-27.442;153.014;2023-02-23T08:47:26;1.85;;;1.05;;
64915;SDS011;51427;-27.442;153.014;2023-02-23T08:49:54;4.10;;;0.90;;
64915;SDS011;51427;-27.442;153.014;2023-02-23T08:52:22;4.72;;;1.30;;
64915;SDS011;51427;-27.442;153.014;2023-02-23T08:54:50;4.90;;;1.05;;
64915;SDS011;51427;-27.442;153.014;2023-02-23T08:57:18;3.13;;;1.02;;
64915;SDS011;51427;-27.442;153.014;2023-02-23T08:59:45;6.13;;;1.52;;
64915;SDS011;51427;-27.442;153.014;2023-02-23T09:02:13;4.13;;;1.17;;
64915;SDS011;51427;-27.442;153.014;2023-02-23T09:04:41;2.35;;;0.80;;
64915;SDS011;51427;-27.442;153.014;2023-02-23T09:07:12;4.10;;;1.13;;
64915;SDS011;51427;-27.442;153.014;2023-02-23T09:09:44;2.25;;;0.95;;
64915;SDS011;51427;-27.442;153.014;2023-02-23T09:12:12;5.00;;;1.55;;
64915;SDS011;51427;-27.442;153.014;2023-02-23T09:14:40;5.53;;;1.40;;
64915;SDS011;51427;-27.442;153.014;2023-02-23T09:17:07;2.78;;;1.27;;
64915;SDS011;51427;-27.442;153.014;2023-02-23T09:19:36;4.65;;;1.20;;
64915;SDS011;51427;-27.442;153.014;2023-02-23T09:22:03;5.03;;;1.33;;
64915;SDS011;51427;-27.442;153.014;2023-02-23T09:24:31;2.72;;;0.90;;
64915;SDS011;51427;-27.442;153.014;2023-02-23T09:26:59;3.47;;;1.10;;
64915;SDS011;51427;-27.442;153.014;2023-02-23T09:29:27;3.08;;;0.98;;
64915;SDS011;51427;-27.442;153.014;2023-02-23T09:31:55;3.13;;;1.25;;
64915;SDS011;51427;-27.442;153.014;2023-02-23T09:34:23;5.90;;;1.15;;
64915;SDS011;51427;-27.442;153.014;2023-02-23T09:36:51;3.22;;;1.35;;
64915;SDS011;51427;-27.442;153.014;2023-02-23T09:39:20;3.00;;;1.00;;
64915;SDS011;51427;-27.442;153.014;2023-02-23T09:50:34;5.75;;;1.35;;
64915;SDS011;51427;-27.442;153.014;2023-02-23T09:55:38;4.30;;;1.05;;
64915;SDS011;51427;-27.442;153.014;2023-02-23T09:58:15;4.30;;;0.98;;
64915;SDS011;51427;-27.442;153.014;2023-02-23T10:04:05;6.72;;;1.00;;
64915;SDS011;51427;-27.442;153.014;2023-02-23T10:07:41;2.38;;;1.00;;
64915;SDS011;51427;-27.442;153.014;2023-02-23T10:10:28;2.17;;;0.90;;
64915;SDS011;51427;-27.442;153.014;2023-02-23T10:13:25;5.45;;;1.50;;
64915;SDS011;51427;-27.442;153.014;2023-02-23T10:19:03;3.65;;;1.13;;
64915;SDS011;51427;-27.442;153.014;2023-02-23T10:21:43;4.22;;;1.00;;
64915;SDS011;51427;-27.442;153.014;2023-02-23T10:24:20;2.40;;;0.82;;
64915;SDS011;51427;-27.442;153.014;2023-02-23T10:27:01;3.28;;;1.45;;
64915;SDS011;51427;-27.442;153.014;2023-02-23T10:34:53;2.78;;;0.88;;
64915;SDS011;51427;-27.442;153.014;2023-02-23T10:37:22;2.20;;;0.70;;
64915;SDS011;51427;-27.442;153.014;2023-02-23T10:39:51;2.65;;;0.85;;
64915;SDS011;51427;-27.442;153.014;2023-02-23T10:42:24;2.20;;;0.80;;
64915;SDS011;51427;-27.442;153.014;2023-02-23T10:44:57;2.55;;;0.70;;
64915;SDS011;51427;-27.442;153.014;2023-02-23T10:47:26;4.63;;;0.95;;
64915;SDS011;51427;-27.442;153.014;2023-02-23T10:49:57;3.38;;;0.90;;
64915;SDS011;51427;-27.442;153.014;2023-02-23T10:52:30;4.97;;;1.33;;
64915;SDS011;51427;-27.442;153.014;2023-02-23T10:54:59;4.28;;;1.10;;
64915;SDS011;51427;-27.442;153.014;2023-02-23T10:57:34;2.70;;;1.02;;
64915;SDS011;51427;-27.442;153.014;2023-02-23T11:02:42;1.92;;;0.80;;
64915;SDS011;51427;-27.442;153.014;2023-02-23T11:13:43;3.88;;;0.75;;
64915;SDS011;51427;-27.442;153.014;2023-02-23T11:18:41;5.10;;;1.17;;
64915;SDS011;51427;-27.442;153.014;2023-02-23T11:21:30;2.22;;;0.70;;
64915;SDS011;51427;-27.442;153.014;2023-02-23T11:24:05;3.17;;;0.80;;
64915;SDS011;51427;-27.442;153.014;2023-02-23T11:26:53;2.60;;;0.95;;
64915;SDS011;51427;-27.442;153.014;2023-02-23T11:29:35;4.32;;;1.10;;
64915;SDS011;51427;-27.442;153.014;2023-02-23T11:32:07;3.22;;;0.90;;
64915;SDS011;51427;-27.442;153.014;2023-02-23T11:35:09;4.50;;;1.00;;
64915;SDS011;51427;-27.442;153.014;2023-02-23T11:37:52;7.50;;;1.20;;
64915;SDS011;51427;-27.442;153.014;2023-02-23T11:42:51;3.53;;;1.05;;
64915;SDS011;51427;-27.442;153.014;2023-02-23T11:45:21;4.88;;;1.10;;
64915;SDS011;51427;-27.442;153.014;2023-02-23T11:47:53;6.55;;;1.20;;
64915;SDS011;51427;-27.442;153.014;2023-02-23T11:50:25;6.05;;;1.17;;
64915;SDS011;51427;-27.442;153.014;2023-02-23T11:52:54;6.95;;;1.60;;
64915;SDS011;51427;-27.442;153.014;2023-02-23T11:55:28;6.53;;;1.35;;
64915;SDS011;51427;-27.442;153.014;2023-02-23T11:58:15;5.55;;;1.67;;
64915;SDS011;51427;-27.442;153.014;2023-02-23T12:00:59;3.88;;;1.00;;
64915;SDS011;51427;-27.442;153.014;2023-02-23T12:03:29;7.13;;;1.50;;
64915;SDS011;51427;-27.442;153.014;2023-02-23T12:05:59;8.27;;;1.45;;
64915;SDS011;51427;-27.442;153.014;2023-02-23T12:11:05;5.40;;;1.33;;
64915;SDS011;51427;-27.442;153.014;2023-02-23T12:13:47;5.45;;;1.17;;
64915;SDS011;51427;-27.442;153.014;2023-02-23T12:18:59;5.70;;;1.30;;
64915;SDS011;51427;-27.442;153.014;2023-02-23T12:21:56;5.38;;;1.02;;
64915;SDS011;51427;-27.442;153.014;2023-02-23T12:33:26;4.75;;;1.05;;
64915;SDS011;51427;-27.442;153.014;2023-02-23T12:47:06;3.58;;;1.00;;
64915;SDS011;51427;-27.442;153.014;2023-02-23T12:50:04;5.85;;;1.20;;
64915;SDS011;51427;-27.442;153.014;2023-02-23T12:52:52;4.68;;;1.23;;
64915;SDS011;51427;-27.442;153.014;2023-02-23T12:55:49;4.97;;;1.40;;
64915;SDS011;51427;-27.442;153.014;2023-02-23T13:02:03;5.15;;;1.35;;
64915;SDS011;51427;-27.442;153.014;2023-02-23T13:09:45;4.03;;;1.10;;
64915;SDS011;51427;-27.442;153.014;2023-02-23T13:18:08;6.47;;;1.10;;
64915;SDS011;51427;-27.442;153.014;2023-02-23T13:20:49;6.00;;;1.27;;
64915;SDS011;51427;-27.442;153.014;2023-02-23T13:31:03;3.42;;;0.70;;
64915;SDS011;51427;-27.442;153.014;2023-02-23T13:33:41;5.40;;;1.20;;
64915;SDS011;51427;-27.442;153.014;2023-02-23T13:36:08;9.80;;;1.60;;
64915;SDS011;51427;-27.442;153.014;2023-02-23T13:42:29;2.28;;;1.30;;
64915;SDS011;51427;-27.442;153.014;2023-02-23T13:44:39;5.75;;;1.27;;
64915;SDS011;51427;-27.442;153.014;2023-02-23T13:47:26;6.85;;;1.67;;
64915;SDS011;51427;-27.442;153.014;2023-02-23T13:53:35;6.65;;;1.88;;
64915;SDS011;51427;-27.442;153.014;2023-02-23T13:56:23;4.95;;;1.60;;
64915;SDS011;51427;-27.442;153.014;2023-02-23T14:05:05;5.85;;;1.33;;
64915;SDS011;51427;-27.442;153.014;2023-02-23T14:07:40;6.95;;;1.73;;
64915;SDS011;51427;-27.442;153.014;2023-02-23T14:10:16;7.57;;;1.40;;
64915;SDS011;51427;-27.442;153.014;2023-02-23T14:13:56;9.45;;;1.35;;
64915;SDS011;51427;-27.442;153.014;2023-02-23T14:16:14;3.55;;;1.05;;
64915;SDS011;51427;-27.442;153.014;2023-02-23T14:24:26;4.55;;;1.33;;
64915;SDS011;51427;-27.442;153.014;2023-02-23T14:32:41;5.60;;;1.42;;
64915;SDS011;51427;-27.442;153.014;2023-02-23T14:38:08;6.95;;;1.65;;
64915;SDS011;51427;-27.442;153.014;2023-02-23T14:40:54;6.38;;;1.60;;
64915;SDS011;51427;-27.442;153.014;2023-02-23T14:46:16;7.15;;;2.35;;
64915;SDS011;51427;-27.442;153.014;2023-02-23T14:48:56;7.40;;;2.63;;
64915;SDS011;51427;-27.442;153.014;2023-02-23T14:51:35;3.60;;;2.17;;
64915;SDS011;51427;-27.442;153.014;2023-02-23T14:57:26;10.40;;;2.45;;
64915;SDS011;51427;-27.442;153.014;2023-02-23T14:59:57;5.72;;;1.60;;
64915;SDS011;51427;-27.442;153.014;2023-02-23T15:02:29;5.63;;;1.85;;
64915;SDS011;51427;-27.442;153.014;2023-02-23T15:05:12;5.43;;;1.52;;
64915;SDS011;51427;-27.442;153.014;2023-02-23T15:07:41;8.93;;;1.67;;
64915;SDS011;51427;-27.442;153.014;2023-02-23T15:10:19;6.30;;;1.70;;
64915;SDS011;51427;-27.442;153.014;2023-02-23T15:13:46;9.85;;;1.77;;
64915;SDS011;51427;-27.442;153.014;2023-02-23T15:16:17;6.90;;;1.67;;
64915;SDS011;51427;-27.442;153.014;2023-02-23T15:18:59;7.30;;;1.85;;
64915;SDS011;51427;-27.442;153.014;2023-02-23T15:21:30;9.10;;;2.00;;
64915;SDS011;51427;-27.442;153.014;2023-02-23T15:24:05;4.75;;;1.77;;
64915;SDS011;51427;-27.442;153.014;2023-02-23T15:26:46;5.18;;;1.83;;
64915;SDS011;51427;-27.442;153.014;2023-02-23T15:29:19;6.03;;;2.20;;
64915;SDS011;51427;-27.442;153.014;2023-02-23T15:31:52;8.57;;;2.20;;
64915;SDS011;51427;-27.442;153.014;2023-02-23T15:34:26;6.68;;;2.30;;
64915;SDS011;51427;-27.442;153.014;2023-02-23T15:36:59;6.03;;;2.03;;
64915;SDS011;51427;-27.442;153.014;2023-02-23T15:42:05;6.50;;;1.88;;
64915;SDS011;51427;-27.442;153.014;2023-02-23T15:44:37;5.55;;;1.67;;
64915;SDS011;51427;-27.442;153.014;2023-02-23T15:47:05;6.05;;;2.08;;
64915;SDS011;51427;-27.442;153.014;2023-02-23T15:49:44;8.70;;;1.67;;
64915;SDS011;51427;-27.442;153.014;2023-02-23T15:52:19;7.35;;;1.90;;
64915;SDS011;51427;-27.442;153.014;2023-02-23T15:55:00;5.45;;;1.60;;
64915;SDS011;51427;-27.442;153.014;2023-02-23T15:57:40;4.53;;;1.60;;
64915;SDS011;51427;-27.442;153.014;2023-02-23T16:00:20;4.90;;;1.60;;
64915;SDS011;51427;-27.442;153.014;2023-02-23T16:02:58;5.88;;;2.65;;
64915;SDS011;51427;-27.442;153.014;2023-02-23T16:05:27;11.45;;;3.60;;
64915;SDS011;51427;-27.442;153.014;2023-02-23T16:08:22;13.07;;;3.50;;
64915;SDS011;51427;-27.442;153.014;2023-02-23T16:10:53;7.38;;;2.45;;
64915;SDS011;51427;-27.442;153.014;2023-02-23T16:13:43;9.57;;;2.17;;
64915;SDS011;51427;-27.442;153.014;2023-02-23T16:16:13;7.25;;;2.15;;
64915;SDS011;51427;-27.442;153.014;2023-02-23T16:19:01;6.95;;;1.77;;
64915;SDS011;51427;-27.442;153.014;2023-02-23T16:21:30;11.38;;;2.53;;
64915;SDS011;51427;-27.442;153.014;2023-02-23T16:24:04;5.45;;;1.63;;
64915;SDS011;51427;-27.442;153.014;2023-02-23T16:26:44;4.93;;;1.48;;
64915;SDS011;51427;-27.442;153.014;2023-02-23T16:29:25;4.47;;;1.40;;
64915;SDS011;51427;-27.442;153.014;2023-02-23T16:31:58;8.02;;;2.05;;
64915;SDS011;51427;-27.442;153.014;2023-02-23T16:34:49;6.38;;;2.08;;
64915;SDS011;51427;-27.442;153.014;2023-02-23T16:37:23;6.28;;;2.70;;
64915;SDS011;51427;-27.442;153.014;2023-02-23T16:39:53;5.65;;;2.20;;
64915;SDS011;51427;-27.442;153.014;2023-02-23T16:42:29;6.72;;;1.80;;
64915;SDS011;51427;-27.442;153.014;2023-02-23T16:44:58;6.85;;;2.22;;
64915;SDS011;51427;-27.442;153.014;2023-02-23T16:47:33;7.10;;;2.03;;
64915;SDS011;51427;-27.442;153.014;2023-02-23T16:50:16;5.82;;;1.77;;
64915;SDS011;51427;-27.442;153.014;2023-02-23T16:52:48;8.85;;;2.38;;
64915;SDS011;51427;-27.442;153.014;2023-02-23T16:55:17;5.65;;;2.03;;
64915;SDS011;51427;-27.442;153.014;2023-02-23T16:57:51;5.43;;;2.35;;
64915;SDS011;51427;-27.442;153.014;2023-02-23T17:00:28;8.73;;;2.30;;
64915;SDS011;51427;-27.442;153.014;2023-02-23T17:02:58;4.57;;;2.40;;
64915;SDS011;51427;-27.442;153.014;2023-02-23T17:05:26;6.82;;;2.67;;
64915;SDS011;51427;-27.442;153.014;2023-02-23T17:07:57;7.43;;;2.80;;
64915;SDS011;51427;-27.442;153.014;2023-02-23T17:10:26;6.13;;;2.58;;
64915;SDS011;51427;-27.442;153.014;2023-02-23T17:13:02;8.98;;;2.90;;
64915;SDS011;51427;-27.442;153.014;2023-02-23T17:15:36;7.88;;;2.63;;
64915;SDS011;51427;-27.442;153.014;2023-02-23T17:18:06;4.63;;;2.70;;
64915;SDS011;51427;-27.442;153.014;2023-02-23T17:20:37;6.00;;;2.35;;
64915;SDS011;51427;-27.442;153.014;2023-02-23T17:23:05;6.15;;;2.15;;
64915;SDS011;51427;-27.442;153.014;2023-02-23T17:25:32;5.60;;;2.13;;
64915;SDS011;51427;-27.442;153.014;2023-02-23T17:28:03;3.95;;;1.83;;
64915;SDS011;51427;-27.442;153.014;2023-02-23T17:30:31;7.85;;;1.77;;
64915;SDS011;51427;-27.442;153.014;2023-02-23T17:33:01;4.63;;;1.75;;